createdAt,value
2023-05-05T00:01:48.434Z,4.63
2023-05-05T00:04:17.569Z,4.55
2023-05-05T00:06:47.286Z,4.50
2023-05-05T00:09:14.979Z,4.60
2023-05-05T00:11:42.778Z,4.60
2023-05-05T00:14:11.128Z,4.80
2023-05-05T00:16:39.078Z,4.60
2023-05-05T00:19:06.830Z,4.90
2023-05-05T00:21:34.889Z,4.83
2023-05-05T00:24:04.025Z,4.70
2023-05-05T00:26:31.641Z,4.57
2023-05-05T00:28:59.352Z,4.40
2023-05-05T00:31:27.067Z,4.50
2023-05-05T00:33:56.444Z,4.57
2023-05-05T00:36:24.088Z,4.72
2023-05-05T00:38:51.764Z,4.53
2023-05-05T00:41:20.775Z,4.40
2023-05-05T00:43:48.746Z,4.50
2023-05-05T00:46:24.610Z,4.90
2023-05-05T00:48:52.540Z,4.43
2023-05-05T00:51:21.886Z,4.50
2023-05-05T00:53:50.187Z,4.60
2023-05-05T00:56:19.608Z,4.72
2023-05-05T00:58:49.142Z,4.50
2023-05-05T01:01:17.070Z,4.60
2023-05-05T01:03:44.807Z,4.20
2023-05-05T01:06:24.459Z,4.33
2023-05-05T01:09:05.042Z,4.60
2023-05-05T01:11:43.066Z,4.60
2023-05-05T01:14:17.064Z,4.53
2023-05-05T01:16:55.108Z,4.40
2023-05-05T01:19:41.753Z,4.45
2023-05-05T01:22:14.412Z,4.63
2023-05-05T01:24:53.554Z,4.30
2023-05-05T01:27:35.981Z,4.50
2023-05-05T01:30:18.051Z,4.60
2023-05-05T01:32:51.703Z,4.43
2023-05-05T01:35:22.020Z,4.50
2023-05-05T01:37:56.333Z,4.90
2023-05-05T01:40:32.328Z,4.68
2023-05-05T01:43:02.748Z,4.70
2023-05-05T01:45:34.533Z,4.50
2023-05-05T01:48:06.329Z,4.30
2023-05-05T01:50:35.723Z,4.40
2023-05-05T01:53:05.702Z,4.28
2023-05-05T01:55:35.570Z,4.63
2023-05-05T01:58:04.554Z,4.40
2023-05-05T02:00:33.849Z,4.47
2023-05-05T02:03:05.106Z,4.60
2023-05-05T02:05:34.472Z,4.53
2023-05-05T02:08:03.839Z,4.70
2023-05-05T02:10:32.569Z,4.43
2023-05-05T02:13:02.965Z,4.90
2023-05-05T02:15:31.886Z,4.70
2023-05-05T02:18:01.491Z,4.60
2023-05-05T02:20:32.682Z,4.93
2023-05-05T02:23:00.970Z,4.70
2023-05-05T02:25:36.703Z,4.40
2023-05-05T02:28:05.796Z,4.40
2023-05-05T02:30:36.188Z,4.43
2023-05-05T02:33:08.371Z,4.60
2023-05-05T02:35:40.100Z,4.60
2023-05-05T02:38:13.518Z,4.67
2023-05-05T02:40:44.439Z,4.65
2023-05-05T02:43:16.598Z,4.82
2023-05-05T02:45:44.373Z,4.70
2023-05-05T02:48:12.942Z,4.50
2023-05-05T02:50:42.081Z,4.40
2023-05-05T02:53:10.090Z,4.70
2023-05-05T02:55:43.035Z,4.90
2023-05-05T02:58:18.172Z,4.60
2023-05-05T03:00:54.573Z,4.73
2023-05-05T03:03:26.991Z,4.95
2023-05-05T03:06:03.845Z,5.10
2023-05-05T03:08:38.050Z,4.97
2023-05-05T03:11:07.820Z,4.95
2023-05-05T03:13:37.702Z,5.20
2023-05-05T03:16:08.508Z,5.00
2023-05-05T03:18:39.053Z,5.20
2023-05-05T03:21:09.008Z,5.40
2023-05-05T03:23:37.210Z,5.50
2023-05-05T03:26:04.900Z,5.30
2023-05-05T03:28:32.589Z,5.55
2023-05-05T03:31:00.360Z,5.32
2023-05-05T03:33:28.299Z,5.10
2023-05-05T03:35:55.920Z,5.05
2023-05-05T03:38:25.020Z,4.70
2023-05-05T03:40:52.726Z,5.30
2023-05-05T03:43:20.617Z,5.90
2023-05-05T03:45:50.398Z,5.13
2023-05-05T03:48:18.272Z,5.07
2023-05-05T03:50:46.200Z,5.20
2023-05-05T03:53:14.009Z,5.25
2023-05-05T03:55:43.026Z,5.20
2023-05-05T03:58:11.124Z,5.68
2023-05-05T04:00:38.881Z,5.30
2023-05-05T04:03:06.944Z,5.33
2023-05-05T04:05:35.150Z,5.60
2023-05-05T04:08:03.333Z,5.35
2023-05-05T04:10:31.657Z,5.57
2023-05-05T04:13:01.308Z,5.63
2023-05-05T04:15:29.019Z,5.90
2023-05-05T04:17:56.780Z,5.50
2023-05-05T04:20:24.810Z,5.60
2023-05-05T04:22:52.898Z,6.38
2023-05-05T04:25:20.632Z,5.60
2023-05-05T04:27:48.306Z,5.40
2023-05-05T04:30:17.337Z,5.30
2023-05-05T04:32:45.082Z,4.93
2023-05-05T04:35:13.397Z,5.00
2023-05-05T04:37:41.352Z,5.27
2023-05-05T04:40:10.629Z,5.00
2023-05-05T04:42:38.344Z,4.80
2023-05-05T04:45:06.918Z,4.80
2023-05-05T04:47:39.189Z,4.63
2023-05-05T04:50:08.115Z,5.10
2023-05-05T04:52:36.812Z,5.05
2023-05-05T04:55:04.825Z,5.30
2023-05-05T04:57:32.528Z,4.80
2023-05-05T05:00:01.479Z,4.80
2023-05-05T05:02:29.186Z,4.75
2023-05-05T05:04:58.252Z,4.68
2023-05-05T05:07:25.954Z,4.55
2023-05-05T05:09:53.786Z,4.80
2023-05-05T05:12:21.447Z,4.70
2023-05-05T05:14:49.040Z,4.50
2023-05-05T05:17:16.885Z,4.68
2023-05-05T05:19:44.596Z,4.50
2023-05-05T05:22:13.543Z,4.43
2023-05-05T05:24:41.452Z,4.65
2023-05-05T05:27:10.121Z,4.80
2023-05-05T05:29:37.983Z,4.60
2023-05-05T05:32:06.239Z,4.50
2023-05-05T05:34:33.920Z,4.43
2023-05-05T05:37:01.766Z,4.50
2023-05-05T05:39:30.844Z,4.40
2023-05-05T05:41:58.465Z,4.50
2023-05-05T05:44:26.178Z,4.88
2023-05-05T05:46:53.857Z,4.27
2023-05-05T05:49:21.505Z,4.80
2023-05-05T05:51:49.172Z,4.83
2023-05-05T05:54:17.025Z,4.70
2023-05-05T05:56:46.063Z,4.43
2023-05-05T05:59:13.642Z,4.32
2023-05-05T06:01:41.336Z,4.55
2023-05-05T06:04:09.174Z,4.68
2023-05-05T06:06:37.033Z,4.57
2023-05-05T06:09:04.945Z,4.57
2023-05-05T06:11:33.068Z,4.40
2023-05-05T06:14:02.183Z,4.20
2023-05-05T06:16:29.946Z,3.85
2023-05-05T06:19:00.390Z,4.03
2023-05-05T06:21:28.264Z,3.90
2023-05-05T06:23:55.962Z,4.07
2023-05-05T06:26:23.644Z,4.10
2023-05-05T06:28:51.322Z,3.80
2023-05-05T06:31:20.394Z,3.90
2023-05-05T06:33:47.961Z,3.78
2023-05-05T06:36:15.702Z,3.83
2023-05-05T06:38:43.586Z,3.40
2023-05-05T06:41:11.496Z,3.88
2023-05-05T06:43:39.673Z,3.58
2023-05-05T06:46:07.325Z,3.25
2023-05-05T06:48:36.848Z,3.47
2023-05-05T06:51:04.826Z,3.33
2023-05-05T06:53:32.567Z,3.70
2023-05-05T06:56:00.209Z,3.60
2023-05-05T06:58:27.854Z,3.38
2023-05-05T07:00:55.783Z,3.60
2023-05-05T07:03:23.481Z,3.10
2023-05-05T07:05:53.883Z,3.20
2023-05-05T07:08:21.799Z,3.70
2023-05-05T07:10:49.787Z,2.83
2023-05-05T07:13:17.808Z,2.70
2023-05-05T07:15:46.593Z,2.90
2023-05-05T07:18:14.511Z,3.50
2023-05-05T07:20:42.517Z,2.70
2023-05-05T07:23:11.890Z,2.50
2023-05-05T07:25:40.046Z,2.70
2023-05-05T07:28:08.062Z,2.60
2023-05-05T07:30:36.012Z,2.83
2023-05-05T07:33:04.278Z,2.55
2023-05-05T07:35:31.995Z,2.65
2023-05-05T07:37:59.896Z,2.70
2023-05-05T07:40:29.063Z,2.90
2023-05-05T07:42:56.840Z,2.72
2023-05-05T07:45:24.620Z,2.92
2023-05-05T07:47:52.772Z,3.00
2023-05-05T07:50:20.730Z,3.23
2023-05-05T07:52:54.010Z,3.15
2023-05-05T07:55:31.332Z,3.10
2023-05-05T07:57:59.229Z,2.92
2023-05-05T08:00:27.347Z,2.50
2023-05-05T08:02:55.054Z,2.42
2023-05-05T08:05:22.798Z,2.80
2023-05-05T08:07:50.715Z,2.40
2023-05-05T08:10:18.502Z,2.53
2023-05-05T08:12:47.613Z,2.67
2023-05-05T08:15:15.418Z,2.20
2023-05-05T08:17:48.053Z,2.17
2023-05-05T08:20:16.443Z,1.27
2023-05-05T08:22:44.278Z,1.08
2023-05-05T08:25:13.073Z,1.10
2023-05-05T08:27:42.110Z,1.07
2023-05-05T08:30:12.393Z,1.10
2023-05-05T08:32:40.229Z,1.10
2023-05-05T08:35:08.698Z,1.00
2023-05-05T08:37:36.609Z,1.00
2023-05-05T08:40:04.716Z,1.17
2023-05-05T08:42:37.178Z,0.90
2023-05-05T08:45:06.875Z,0.90
2023-05-05T08:47:36.966Z,1.20
2023-05-05T08:50:06.629Z,1.00
2023-05-05T08:52:41.274Z,1.17
2023-05-05T08:55:16.359Z,1.13
2023-05-05T08:57:51.419Z,1.20
2023-05-05T09:00:20.750Z,1.02
2023-05-05T09:02:50.339Z,1.20
2023-05-05T09:05:19.119Z,1.13
2023-05-05T09:07:47.498Z,1.10
2023-05-05T09:10:15.887Z,1.60
2023-05-05T09:12:43.992Z,1.03
2023-05-05T09:15:13.618Z,0.90
2023-05-05T09:17:42.065Z,0.90
2023-05-05T09:20:12.908Z,0.97
2023-05-05T09:22:43.118Z,1.00
2023-05-05T09:25:13.142Z,0.93
2023-05-05T09:27:42.281Z,1.00
2023-05-05T09:30:12.151Z,0.90
2023-05-05T09:32:48.013Z,1.63
2023-05-05T09:35:18.040Z,1.65
2023-05-05T09:37:46.700Z,1.70
2023-05-05T09:40:15.829Z,1.67
2023-05-05T09:42:44.693Z,1.75
2023-05-05T09:45:27.924Z,1.50
2023-05-05T09:47:59.590Z,1.60
2023-05-05T09:50:32.631Z,1.60
2023-05-05T09:53:03.019Z,1.70
2023-05-05T09:55:31.981Z,1.60
2023-05-05T09:58:18.608Z,1.67
2023-05-05T10:00:47.490Z,1.52
2023-05-05T10:03:16.023Z,1.58
2023-05-05T10:05:52.022Z,1.50
2023-05-05T10:08:21.375Z,1.60
2023-05-05T10:10:52.560Z,1.38
2023-05-05T10:13:22.140Z,1.50
2023-05-05T10:15:52.414Z,1.40
2023-05-05T10:18:22.735Z,1.20
2023-05-05T10:20:57.988Z,1.20
2023-05-05T10:23:30.183Z,0.90
2023-05-05T10:26:03.591Z,0.82
2023-05-05T10:28:35.072Z,0.70
2023-05-05T10:31:12.858Z,0.60
2023-05-05T10:33:54.752Z,0.60
2023-05-05T10:36:27.511Z,0.60
2023-05-05T10:38:57.655Z,0.65
2023-05-05T10:41:26.303Z,0.77
2023-05-05T10:43:56.261Z,0.60
2023-05-05T10:46:25.049Z,0.70
2023-05-05T10:49:01.007Z,0.70
2023-05-05T10:51:44.174Z,0.60
2023-05-05T10:54:24.615Z,0.70
2023-05-05T10:56:53.787Z,0.80
2023-05-05T10:59:40.694Z,0.70
2023-05-05T11:02:27.500Z,0.80
2023-05-05T11:05:23.258Z,0.70
2023-05-05T11:07:53.117Z,0.70
2023-05-05T11:10:22.981Z,0.60
2023-05-05T11:13:19.035Z,0.63
2023-05-05T11:15:47.344Z,0.70
2023-05-05T11:18:36.434Z,0.60
2023-05-05T11:21:17.812Z,0.57
2023-05-05T11:23:51.882Z,0.60
2023-05-05T11:26:41.826Z,0.68
2023-05-05T11:29:09.616Z,0.70
2023-05-05T11:31:37.449Z,0.50
2023-05-05T11:34:26.171Z,0.60
2023-05-05T11:36:56.440Z,0.70
2023-05-05T11:39:36.776Z,0.60
2023-05-05T11:42:23.237Z,0.80
2023-05-05T11:44:51.668Z,0.70
2023-05-05T11:47:32.491Z,0.68
2023-05-05T11:50:18.008Z,0.70
2023-05-05T11:52:46.636Z,0.80
2023-05-05T11:55:21.151Z,0.60
2023-05-05T11:57:49.038Z,0.90
2023-05-05T12:00:17.737Z,0.80
2023-05-05T12:02:45.925Z,0.60
2023-05-05T12:05:20.723Z,0.60
2023-05-05T12:07:48.488Z,0.60
2023-05-05T12:10:24.991Z,0.63
2023-05-05T12:12:55.506Z,0.70
2023-05-05T12:15:30.857Z,0.73
2023-05-05T12:18:01.434Z,0.70
2023-05-05T12:20:32.326Z,0.60
2023-05-05T12:23:04.411Z,0.80
2023-05-05T12:25:40.954Z,0.70
2023-05-05T12:28:09.475Z,0.70
2023-05-05T12:30:37.467Z,0.70
2023-05-05T12:33:06.729Z,0.80
2023-05-05T12:35:35.925Z,0.70
2023-05-05T12:38:04.114Z,0.70
2023-05-05T12:40:47.321Z,0.57
2023-05-05T12:43:28.834Z,0.88
2023-05-05T12:46:04.170Z,0.70
2023-05-05T12:48:32.694Z,0.70
2023-05-05T12:51:14.743Z,0.70
2023-05-05T12:53:42.610Z,0.80
2023-05-05T12:56:36.124Z,0.95
2023-05-05T12:59:05.595Z,1.00
2023-05-05T13:01:33.515Z,1.00
2023-05-05T13:04:14.934Z,1.10
2023-05-05T13:06:44.356Z,1.70
2023-05-05T13:09:23.946Z,1.08
2023-05-05T13:11:53.647Z,1.20
2023-05-05T13:14:21.672Z,1.38
2023-05-05T13:16:49.860Z,1.40
2023-05-05T13:19:17.803Z,1.30
2023-05-05T13:21:45.504Z,1.20
2023-05-05T13:24:25.936Z,1.20
2023-05-05T13:27:00.768Z,1.10
2023-05-05T13:29:31.660Z,1.23
2023-05-05T13:31:59.834Z,1.50
2023-05-05T13:34:28.277Z,1.25
2023-05-05T13:36:56.308Z,1.10
2023-05-05T13:39:24.061Z,1.10
2023-05-05T13:41:51.903Z,1.27
2023-05-05T13:44:21.343Z,1.27
2023-05-05T13:46:49.318Z,1.17
2023-05-05T13:49:17.723Z,1.10
2023-05-05T13:51:46.881Z,1.27
2023-05-05T13:54:14.937Z,1.20
2023-05-05T13:56:43.760Z,1.17
2023-05-05T13:59:11.550Z,1.13
2023-05-05T14:01:40.762Z,1.20
2023-05-05T14:04:09.024Z,0.80
2023-05-05T14:06:36.781Z,0.88
2023-05-05T14:09:06.441Z,0.88
2023-05-05T14:11:34.507Z,0.90
2023-05-05T14:14:02.765Z,1.00
2023-05-05T14:16:30.645Z,1.00
2023-05-05T14:18:59.811Z,0.90
2023-05-05T14:21:27.532Z,0.90
2023-05-05T14:23:55.401Z,1.20
2023-05-05T14:26:23.259Z,0.90
2023-05-05T14:28:51.098Z,0.85
2023-05-05T14:31:18.870Z,1.10
2023-05-05T14:33:46.634Z,1.00
2023-05-05T14:36:15.703Z,1.00
2023-05-05T14:38:43.495Z,0.90
2023-05-05T14:41:11.799Z,1.10
2023-05-05T14:43:39.739Z,0.97
2023-05-05T14:46:07.669Z,0.95
2023-05-05T14:48:35.950Z,1.30
2023-05-05T14:51:04.712Z,0.98
2023-05-05T14:53:33.700Z,1.20
2023-05-05T14:56:02.082Z,1.30
2023-05-05T14:58:29.847Z,1.10
2023-05-05T15:00:57.526Z,1.10
2023-05-05T15:03:25.519Z,1.10
2023-05-05T15:05:53.379Z,1.40
2023-05-05T15:08:21.092Z,1.35
2023-05-05T15:10:50.125Z,1.30
2023-05-05T15:13:18.528Z,1.20
2023-05-05T15:15:46.293Z,1.38
2023-05-05T15:18:13.937Z,1.10
2023-05-05T15:20:41.721Z,1.00
2023-05-05T15:23:09.430Z,3.13
2023-05-05T15:25:37.045Z,6.45
2023-05-05T15:28:06.730Z,3.65
2023-05-05T15:30:34.691Z,1.42
2023-05-05T15:33:02.661Z,1.38
2023-05-05T15:35:30.780Z,1.33
2023-05-05T15:37:58.450Z,1.30
2023-05-05T15:40:26.158Z,2.00
2023-05-05T15:42:53.884Z,0.98
2023-05-05T15:45:22.892Z,1.17
2023-05-05T15:47:51.008Z,1.73
2023-05-05T15:50:18.880Z,1.40
2023-05-05T15:52:49.321Z,9.07
2023-05-05T15:55:17.742Z,14.07
2023-05-05T15:57:45.523Z,23.27
2023-05-05T16:00:14.509Z,20.17
2023-05-05T16:02:43.684Z,14.65
2023-05-05T16:05:12.299Z,21.73
2023-05-05T16:07:39.920Z,7.47
2023-05-05T16:10:09.155Z,5.57
2023-05-05T16:12:36.876Z,4.80
2023-05-05T16:15:05.055Z,35.97
2023-05-05T16:17:33.074Z,3.17
2023-05-05T16:20:02.145Z,7.35
2023-05-05T16:22:29.823Z,6.72
2023-05-05T16:24:57.560Z,5.47
2023-05-05T16:27:26.446Z,3.10
2023-05-05T16:29:54.530Z,3.10
2023-05-05T16:32:22.265Z,3.30
2023-05-05T16:34:50.055Z,3.13
2023-05-05T16:37:19.230Z,2.83
2023-05-05T16:39:46.905Z,2.50
2023-05-05T16:42:14.523Z,2.20
2023-05-05T16:44:42.175Z,2.03
2023-05-05T16:47:09.814Z,2.63
2023-05-05T16:49:37.583Z,3.22
2023-05-05T16:52:05.730Z,3.93
2023-05-05T16:54:34.953Z,1.90
2023-05-05T16:57:03.934Z,3.27
2023-05-05T16:59:31.790Z,4.25
2023-05-05T17:01:59.660Z,2.10
2023-05-05T17:04:27.413Z,1.50
2023-05-05T17:06:56.212Z,1.52
2023-05-05T17:09:24.884Z,1.50
2023-05-05T17:11:54.038Z,2.15
2023-05-05T17:14:21.666Z,1.60
2023-05-05T17:16:49.617Z,1.90
2023-05-05T17:19:17.459Z,1.30
2023-05-05T17:21:45.457Z,4.60
2023-05-05T17:24:13.425Z,2.45
2023-05-05T17:26:41.493Z,2.17
2023-05-05T17:29:12.839Z,1.80
2023-05-05T17:31:41.691Z,1.50
2023-05-05T17:34:09.564Z,1.80
2023-05-05T17:36:37.576Z,1.35
2023-05-05T17:39:07.355Z,1.60
2023-05-05T17:41:35.094Z,1.90
2023-05-05T17:44:02.725Z,1.60
2023-05-05T17:46:31.839Z,1.90
2023-05-05T17:49:00.766Z,3.53
2023-05-05T17:51:28.846Z,3.60
2023-05-05T17:53:56.565Z,2.03
2023-05-05T17:56:24.690Z,1.83
2023-05-05T17:58:52.968Z,1.92
2023-05-05T18:01:22.889Z,1.67
2023-05-05T18:03:52.371Z,2.08
2023-05-05T18:06:20.333Z,1.60
2023-05-05T18:08:48.033Z,1.50
2023-05-05T18:11:16.177Z,1.40
2023-05-05T18:13:44.396Z,1.33
2023-05-05T18:16:12.303Z,1.45
2023-05-05T18:18:41.144Z,1.60
2023-05-05T18:21:12.365Z,1.35
2023-05-05T18:23:40.678Z,1.50
2023-05-05T18:26:08.549Z,1.52
2023-05-05T18:28:38.137Z,1.50
2023-05-05T18:31:06.315Z,1.65
2023-05-05T18:33:34.291Z,1.60
2023-05-05T18:36:03.554Z,2.10
2023-05-05T18:38:33.613Z,5.07
2023-05-05T18:41:01.423Z,3.40
2023-05-05T18:43:29.395Z,1.88
2023-05-05T18:45:57.447Z,9.25
2023-05-05T18:48:26.239Z,2.10
2023-05-05T18:50:54.102Z,1.90
2023-05-05T18:53:22.364Z,1.50
2023-05-05T18:55:51.471Z,1.63
2023-05-05T18:58:19.495Z,1.45
2023-05-05T19:00:47.546Z,2.28
2023-05-05T19:03:15.740Z,2.80
2023-05-05T19:05:43.544Z,2.20
2023-05-05T19:08:11.676Z,2.10
2023-05-05T19:10:40.091Z,1.90
2023-05-05T19:13:09.978Z,1.67
2023-05-05T19:15:38.104Z,2.20
2023-05-05T19:18:06.669Z,2.00
2023-05-05T19:20:34.668Z,1.80
2023-05-05T19:23:04.570Z,1.60
2023-05-05T19:25:32.740Z,1.50
2023-05-05T19:28:00.625Z,1.27
2023-05-05T19:30:30.035Z,1.88
2023-05-05T19:32:58.054Z,1.60
2023-05-05T19:35:26.301Z,1.60
2023-05-05T19:37:54.842Z,1.50
2023-05-05T19:40:23.104Z,1.67
2023-05-05T19:42:50.770Z,1.60
2023-05-05T19:45:18.977Z,1.85
2023-05-05T19:47:48.257Z,1.70
2023-05-05T19:50:16.446Z,1.70
2023-05-05T19:52:44.350Z,1.70
2023-05-05T19:55:13.169Z,1.63
2023-05-05T19:57:41.740Z,1.85
2023-05-05T20:00:10.966Z,2.38
2023-05-05T20:02:39.072Z,2.90
2023-05-05T20:05:09.145Z,2.60
2023-05-05T20:07:36.804Z,2.55
2023-05-05T20:10:04.838Z,2.70
2023-05-05T20:12:32.753Z,2.55
2023-05-05T20:15:00.513Z,3.28
2023-05-05T20:17:28.574Z,5.70
2023-05-05T20:19:57.630Z,4.10
2023-05-05T20:22:26.885Z,3.87
2023-05-05T20:24:54.625Z,3.40
2023-05-05T20:27:22.385Z,3.10
2023-05-05T20:29:50.350Z,3.30
2023-05-05T20:32:20.522Z,3.08
2023-05-05T20:34:48.389Z,3.22
2023-05-05T20:37:16.172Z,3.33
2023-05-05T20:39:47.170Z,3.53
2023-05-05T20:42:14.837Z,3.80
2023-05-05T20:44:42.790Z,3.42
2023-05-05T20:47:10.762Z,2.92
2023-05-05T20:49:38.660Z,2.80
2023-05-05T20:52:06.531Z,2.75
2023-05-05T20:54:34.551Z,2.65
2023-05-05T20:57:03.773Z,2.70
2023-05-05T20:59:32.263Z,2.60
2023-05-05T21:02:00.319Z,2.70
2023-05-05T21:04:28.089Z,2.60
2023-05-05T21:06:55.815Z,2.80
2023-05-05T21:09:24.406Z,2.60
2023-05-05T21:11:52.283Z,2.67
2023-05-05T21:14:21.268Z,2.45
2023-05-05T21:16:49.223Z,2.05
2023-05-05T21:19:17.459Z,2.13
2023-05-05T21:21:45.108Z,2.05
2023-05-05T21:24:14.007Z,2.10
2023-05-05T21:26:44.245Z,2.85
2023-05-05T21:29:12.204Z,2.15
2023-05-05T21:31:41.281Z,2.00
2023-05-05T21:34:09.185Z,2.10
2023-05-05T21:36:37.061Z,2.30
2023-05-05T21:39:04.737Z,2.10
2023-05-05T21:41:32.496Z,2.10
2023-05-05T21:44:00.444Z,2.20
2023-05-05T21:46:28.432Z,2.08
2023-05-05T21:48:58.222Z,2.00
2023-05-05T21:51:26.500Z,2.30
2023-05-05T21:53:54.681Z,2.08
2023-05-05T21:56:22.858Z,2.03
2023-05-05T21:58:50.542Z,2.17
2023-05-05T22:01:18.289Z,1.95
2023-05-05T22:03:47.494Z,2.20
2023-05-05T22:06:17.936Z,2.00
2023-05-05T22:08:45.658Z,2.20
2023-05-05T22:11:13.932Z,2.20
2023-05-05T22:13:41.953Z,2.10
2023-05-05T22:16:11.002Z,2.17
2023-05-05T22:18:38.803Z,2.40
2023-05-05T22:21:07.390Z,2.15
2023-05-05T22:23:37.085Z,2.20
2023-05-05T22:26:05.708Z,2.10
2023-05-05T22:28:33.650Z,2.22
2023-05-05T22:31:01.499Z,2.00
2023-05-05T22:33:29.337Z,2.50
2023-05-05T22:35:57.021Z,2.30
2023-05-05T22:38:24.770Z,2.20
2023-05-05T22:40:54.173Z,2.30
2023-05-05T22:43:21.912Z,2.10
2023-05-05T22:45:49.660Z,2.25
2023-05-05T22:48:17.308Z,2.40
2023-05-05T22:50:45.586Z,2.20
2023-05-05T22:53:13.464Z,2.40
2023-05-05T22:55:41.143Z,2.78
2023-05-05T22:58:10.259Z,2.90
2023-05-05T23:00:37.884Z,3.10
2023-05-05T23:03:05.716Z,3.10
2023-05-05T23:05:34.384Z,3.28
2023-05-05T23:08:02.346Z,3.20
2023-05-05T23:10:30.597Z,3.20
2023-05-05T23:12:58.271Z,2.80
2023-05-05T23:15:27.302Z,3.00
2023-05-05T23:17:55.333Z,2.90
2023-05-05T23:20:23.283Z,2.58
2023-05-05T23:22:50.990Z,2.60
2023-05-05T23:25:18.614Z,2.75
2023-05-05T23:27:46.196Z,2.72
2023-05-05T23:30:14.607Z,2.53
2023-05-05T23:32:44.897Z,2.73
2023-05-05T23:35:13.058Z,2.58
2023-05-05T23:37:41.008Z,2.60
2023-05-05T23:40:09.957Z,2.47
2023-05-05T23:42:37.580Z,2.47
2023-05-05T23:45:05.750Z,2.70
2023-05-05T23:47:33.501Z,2.53
2023-05-05T23:50:02.528Z,2.53
2023-05-05T23:52:30.265Z,2.70
2023-05-05T23:54:57.899Z,2.63
2023-05-05T23:57:25.525Z,2.70
2023-05-05T23:59:53.285Z,2.60
